createdAt,value
2023-03-29T00:00:17.455Z,1021.10
2023-03-29T00:00:47.791Z,1020.89
2023-03-29T00:01:35.754Z,1020.89
2023-03-29T00:01:49.551Z,1020.89
2023-03-29T00:02:20.709Z,1020.89
2023-03-29T00:02:51.523Z,1020.99
2023-03-29T00:03:22.939Z,1021.20
2023-03-29T00:03:53.929Z,1021.20
2023-03-29T00:04:24.521Z,1020.89
2023-03-29T00:04:56.232Z,1020.89
2023-03-29T00:05:27.258Z,1021.10
2023-03-29T00:05:58.132Z,1021.10
2023-03-29T00:06:28.635Z,1021.10
2023-03-29T00:06:59.751Z,1021.10
2023-03-29T00:07:30.423Z,1021.10
2023-03-29T00:08:01.835Z,1021.10
2023-03-29T00:08:32.451Z,1021.10
2023-03-29T00:09:04.189Z,1021.10
2023-03-29T00:09:34.815Z,1020.99
2023-03-29T00:10:05.901Z,1020.99
2023-03-29T00:10:36.836Z,1020.99
2023-03-29T00:11:07.404Z,1020.99
2023-03-29T00:11:38.717Z,1020.89
2023-03-29T00:12:09.771Z,1020.89
2023-03-29T00:12:40.930Z,1020.89
2023-03-29T00:13:11.871Z,1020.89
2023-03-29T00:13:42.470Z,1020.89
2023-03-29T00:14:14.099Z,1020.89
2023-03-29T00:14:44.450Z,1020.69
2023-03-29T00:15:16.077Z,1020.69
2023-03-29T00:15:46.578Z,1021.10
2023-03-29T00:16:17.632Z,1021.10
2023-03-29T00:16:48.460Z,1020.89
2023-03-29T00:17:19.598Z,1020.89
2023-03-29T00:17:50.461Z,1020.89
2023-03-29T00:18:21.872Z,1020.89
2023-03-29T00:18:52.565Z,1020.79
2023-03-29T00:19:23.972Z,1020.79
2023-03-29T00:19:54.635Z,1020.79
2023-03-29T00:20:26.013Z,1020.89
2023-03-29T00:20:56.593Z,1020.89
2023-03-29T00:21:27.679Z,1020.69
2023-03-29T00:21:58.653Z,1020.69
2023-03-29T00:22:29.703Z,1020.79
2023-03-29T00:23:00.660Z,1020.79
2023-03-29T00:23:31.594Z,1020.59
2023-03-29T00:24:05.255Z,1020.59
2023-03-29T00:24:33.911Z,1020.89
2023-03-29T00:25:06.040Z,1020.89
2023-03-29T00:25:35.713Z,1020.69
2023-03-29T00:26:16.575Z,1020.69
2023-03-29T00:26:37.618Z,1020.59
2023-03-29T00:27:08.787Z,1020.59
2023-03-29T00:27:39.431Z,1020.39
2023-03-29T00:28:10.577Z,1020.39
2023-03-29T00:28:41.510Z,1020.22
2023-03-29T00:29:12.656Z,1020.22
2023-03-29T00:29:43.751Z,1020.39
2023-03-29T00:30:15.484Z,1020.39
2023-03-29T00:30:45.907Z,1020.28
2023-03-29T00:31:16.744Z,1020.28
2023-03-29T00:31:47.481Z,1020.39
2023-03-29T00:32:18.470Z,1020.39
2023-03-29T00:32:49.543Z,1020.22
2023-03-29T00:33:20.612Z,1020.22
2023-03-29T00:33:51.495Z,1020.11
2023-03-29T00:34:22.776Z,1020.11
2023-03-29T00:34:53.665Z,1020.11
2023-03-29T00:35:25.545Z,1020.28
2023-03-29T00:35:55.628Z,1020.28
2023-03-29T00:36:26.551Z,1020.59
2023-03-29T00:36:57.740Z,1020.59
2023-03-29T00:37:28.492Z,1020.22
2023-03-29T00:37:59.530Z,1020.22
2023-03-29T00:38:30.509Z,1020.39
2023-03-29T00:39:01.507Z,1020.39
2023-03-29T00:39:32.720Z,1020.39
2023-03-29T00:40:03.798Z,1020.39
2023-03-29T00:40:34.460Z,1020.22
2023-03-29T00:41:05.812Z,1020.22
2023-03-29T00:41:36.750Z,1020.28
2023-03-29T00:42:07.791Z,1020.28
2023-03-29T00:42:38.511Z,1020.28
2023-03-29T00:43:09.451Z,1020.28
2023-03-29T00:43:40.531Z,1020.28
2023-03-29T00:44:11.507Z,1020.28
2023-03-29T00:44:43.025Z,1020.11
2023-03-29T00:45:14.659Z,1020.11
2023-03-29T00:45:44.500Z,1020.28
2023-03-29T00:46:16.118Z,1020.28
2023-03-29T00:46:46.717Z,1019.91
2023-03-29T00:47:17.871Z,1019.91
2023-03-29T00:47:49.027Z,1020.01
2023-03-29T00:48:19.931Z,1020.01
2023-03-29T00:48:50.555Z,1019.81
2023-03-29T00:49:21.538Z,1019.81
2023-03-29T00:49:52.751Z,1020.01
2023-03-29T00:50:24.238Z,1019.81
2023-03-29T00:50:54.703Z,1019.81
2023-03-29T00:51:26.031Z,1020.01
2023-03-29T00:51:56.592Z,1020.01
2023-03-29T00:52:27.539Z,1019.91
2023-03-29T00:52:58.732Z,1019.91
2023-03-29T00:53:29.830Z,1020.22
2023-03-29T00:54:00.957Z,1020.22
2023-03-29T00:54:31.858Z,1019.91
2023-03-29T00:55:03.710Z,1019.91
2023-03-29T00:55:35.288Z,1019.91
2023-03-29T00:56:04.996Z,1019.91
2023-03-29T00:56:37.825Z,1019.91
2023-03-29T00:57:06.696Z,1019.91
2023-03-29T00:57:37.684Z,1019.81
2023-03-29T00:58:08.662Z,1019.81
2023-03-29T00:58:39.910Z,1020.01
2023-03-29T00:59:11.021Z,1020.01
2023-03-29T00:59:41.973Z,1019.81
2023-03-29T01:00:13.904Z,1019.81
2023-03-29T01:00:44.712Z,1020.01
2023-03-29T01:01:15.073Z,1020.01
2023-03-29T01:01:45.937Z,1019.91
2023-03-29T01:02:16.822Z,1019.91
2023-03-29T01:02:48.215Z,1020.22
2023-03-29T01:03:19.112Z,1020.22
2023-03-29T01:03:49.692Z,1020.11
2023-03-29T01:04:20.623Z,1020.11
2023-03-29T01:04:51.546Z,1020.01
2023-03-29T01:05:23.096Z,1019.91
2023-03-29T01:05:54.175Z,1019.91
2023-03-29T01:06:24.845Z,1019.81
2023-03-29T01:06:55.940Z,1019.81
2023-03-29T01:07:26.690Z,1020.01
2023-03-29T01:07:58.572Z,1020.01
2023-03-29T01:08:28.874Z,1020.01
2023-03-29T01:08:59.606Z,1020.01
2023-03-29T01:09:30.902Z,1020.11
2023-03-29T01:10:02.066Z,1020.11
2023-03-29T01:10:33.084Z,1020.11
2023-03-29T01:11:04.192Z,1020.11
2023-03-29T01:11:35.036Z,1020.11
2023-03-29T01:12:05.865Z,1020.11
2023-03-29T01:12:37.152Z,1020.01
2023-03-29T01:13:07.927Z,1020.01
2023-03-29T01:13:38.616Z,1020.01
2023-03-29T01:14:09.834Z,1020.01
2023-03-29T01:14:40.955Z,1020.01
2023-03-29T01:15:12.456Z,1020.01
2023-03-29T01:15:42.793Z,1020.28
2023-03-29T01:16:13.922Z,1020.28
2023-03-29T01:16:45.129Z,1019.91
2023-03-29T01:17:15.999Z,1019.91
2023-03-29T01:17:46.805Z,1020.22
2023-03-29T01:18:18.094Z,1020.22
2023-03-29T01:18:48.896Z,1020.01
2023-03-29T01:19:19.641Z,1020.01
2023-03-29T01:19:51.100Z,1020.01
2023-03-29T01:20:22.252Z,1020.01
2023-03-29T01:20:52.891Z,1019.81
2023-03-29T01:21:24.154Z,1019.81
2023-03-29T01:21:54.841Z,1019.81
2023-03-29T01:22:26.110Z,1019.91
2023-03-29T01:22:57.255Z,1019.91
2023-03-29T01:23:27.940Z,1020.01
2023-03-29T01:23:59.027Z,1020.01
2023-03-29T01:24:29.702Z,1020.11
2023-03-29T01:25:01.317Z,1020.11
2023-03-29T01:25:31.735Z,1019.91
2023-03-29T01:26:02.899Z,1019.91
2023-03-29T01:26:34.052Z,1019.81
2023-03-29T01:27:06.374Z,1019.81
2023-03-29T01:27:36.195Z,1020.01
2023-03-29T01:28:07.160Z,1020.01
2023-03-29T01:28:37.905Z,1019.91
2023-03-29T01:29:08.719Z,1019.91
2023-03-29T01:29:39.801Z,1019.81
2023-03-29T01:30:19.083Z,1019.81
2023-03-29T01:30:41.933Z,1019.81
2023-03-29T01:31:12.893Z,1019.81
2023-03-29T01:31:44.068Z,1019.91
2023-03-29T01:32:14.995Z,1019.91
2023-03-29T01:32:46.145Z,1019.50
2023-03-29T01:33:16.755Z,1019.50
2023-03-29T01:33:47.675Z,1019.61
2023-03-29T01:34:18.716Z,1019.61
2023-03-29T01:34:49.858Z,1019.61
2023-03-29T01:35:22.071Z,1019.61
2023-03-29T01:35:51.930Z,1019.61
2023-03-29T01:36:22.897Z,1019.40
2023-03-29T01:36:54.020Z,1019.40
2023-03-29T01:37:25.074Z,1019.50
2023-03-29T01:37:56.254Z,1019.50
2023-03-29T01:38:26.704Z,1019.61
2023-03-29T01:38:58.130Z,1019.61
2023-03-29T01:39:28.716Z,1019.71
2023-03-29T01:40:00.031Z,1019.71
2023-03-29T01:40:31.334Z,1019.71
2023-03-29T01:41:01.990Z,1019.71
2023-03-29T01:41:32.921Z,1019.40
2023-03-29T01:42:03.816Z,1019.40
2023-03-29T01:42:35.024Z,1019.50
2023-03-29T01:43:05.742Z,1019.50
2023-03-29T01:43:36.728Z,1019.40
2023-03-29T01:44:07.956Z,1019.40
2023-03-29T01:44:39.009Z,1019.50
2023-03-29T01:45:10.547Z,1019.50
2023-03-29T01:45:40.942Z,1019.40
2023-03-29T01:46:11.877Z,1019.40
2023-03-29T01:46:42.875Z,1019.30
2023-03-29T01:47:13.954Z,1019.30
2023-03-29T01:47:45.143Z,1019.30
2023-03-29T01:48:16.054Z,1019.30
2023-03-29T01:48:46.995Z,1019.61
2023-03-29T01:49:17.763Z,1019.61
2023-03-29T01:49:49.118Z,1019.30
2023-03-29T01:50:20.352Z,1019.30
2023-03-29T01:50:50.985Z,1019.50
2023-03-29T01:51:21.714Z,1019.50
2023-03-29T01:51:52.994Z,1019.61
2023-03-29T01:52:23.807Z,1019.40
2023-03-29T01:52:55.111Z,1019.40
2023-03-29T01:53:26.157Z,1019.50
2023-03-29T01:53:57.055Z,1019.50
2023-03-29T01:54:28.135Z,1019.50
2023-03-29T01:54:59.315Z,1019.50
2023-03-29T01:55:30.853Z,1019.61
2023-03-29T01:56:01.112Z,1019.61
2023-03-29T01:56:32.138Z,1019.10
2023-03-29T01:57:03.084Z,1019.10
2023-03-29T01:57:34.133Z,1019.30
2023-03-29T01:58:05.261Z,1019.30
2023-03-29T01:58:38.112Z,1019.30
2023-03-29T01:59:07.079Z,1019.30
2023-03-29T01:59:39.982Z,1019.61
2023-03-29T02:00:09.622Z,1019.61
2023-03-29T02:00:39.974Z,1019.30
2023-03-29T02:01:10.999Z,1019.30
2023-03-29T02:01:41.865Z,1019.40
2023-03-29T02:02:13.113Z,1019.40
2023-03-29T02:02:44.430Z,1019.40
2023-03-29T02:03:15.152Z,1019.40
2023-03-29T02:03:46.478Z,1019.40
2023-03-29T02:04:17.360Z,1019.40
2023-03-29T02:04:48.138Z,1019.20
2023-03-29T02:05:19.552Z,1019.20
2023-03-29T02:05:50.073Z,1019.40
2023-03-29T02:06:21.024Z,1019.40
2023-03-29T02:06:51.981Z,1019.30
2023-03-29T02:07:23.155Z,1019.30
2023-03-29T02:07:54.013Z,1019.30
2023-03-29T02:08:25.208Z,1019.30
2023-03-29T02:08:56.173Z,1019.30
2023-03-29T02:09:27.323Z,1019.30
2023-03-29T02:09:58.191Z,1019.30
2023-03-29T02:10:29.838Z,1019.20
2023-03-29T02:11:00.066Z,1019.20
2023-03-29T02:11:30.842Z,1019.10
2023-03-29T02:12:02.044Z,1019.10
2023-03-29T02:12:33.076Z,1019.30
2023-03-29T02:13:04.503Z,1019.30
2023-03-29T02:13:35.150Z,1019.10
2023-03-29T02:14:06.095Z,1019.10
2023-03-29T02:14:37.123Z,1019.20
2023-03-29T02:15:08.803Z,1019.20
2023-03-29T02:15:39.370Z,1019.20
2023-03-29T02:16:10.055Z,1019.20
2023-03-29T02:16:41.090Z,1019.30
2023-03-29T02:17:12.076Z,1019.30
2023-03-29T02:17:43.160Z,1019.30
2023-03-29T02:18:13.988Z,1019.30
2023-03-29T02:18:44.892Z,1019.30
2023-03-29T02:19:16.073Z,1019.30
2023-03-29T02:19:47.159Z,1019.10
2023-03-29T02:20:18.461Z,1019.10
2023-03-29T02:20:49.232Z,1019.30
2023-03-29T02:21:20.060Z,1019.30
2023-03-29T02:21:51.227Z,1018.69
2023-03-29T02:22:22.092Z,1018.69
2023-03-29T02:22:53.177Z,1019.10
2023-03-29T02:23:23.867Z,1018.90
2023-03-29T02:23:55.417Z,1018.90
2023-03-29T02:24:26.164Z,1018.90
2023-03-29T02:24:57.161Z,1018.90
2023-03-29T02:25:28.734Z,1019.00
2023-03-29T02:25:59.192Z,1019.00
2023-03-29T02:26:30.261Z,1019.10
2023-03-29T02:27:00.958Z,1019.10
2023-03-29T02:27:31.880Z,1019.00
2023-03-29T02:28:03.240Z,1019.00
2023-03-29T02:28:34.132Z,1018.90
2023-03-29T02:29:05.220Z,1018.90
2023-03-29T02:29:36.162Z,1018.90
2023-03-29T02:30:09.937Z,1018.90
2023-03-29T02:30:38.080Z,1019.00
2023-03-29T02:31:10.336Z,1019.00
2023-03-29T02:31:40.328Z,1019.10
2023-03-29T02:32:11.217Z,1019.10
2023-03-29T02:32:42.323Z,1018.90
2023-03-29T02:33:13.620Z,1018.90
2023-03-29T02:33:44.303Z,1018.90
2023-03-29T02:34:15.254Z,1018.90
2023-03-29T02:34:46.302Z,1018.79
2023-03-29T02:35:18.120Z,1018.79
2023-03-29T02:35:48.158Z,1019.00
2023-03-29T02:36:19.360Z,1019.00
2023-03-29T02:36:50.336Z,1019.00
2023-03-29T02:37:21.131Z,1019.00
2023-03-29T02:37:51.956Z,1018.90
2023-03-29T02:38:23.191Z,1019.10
2023-03-29T02:38:54.244Z,1019.10
2023-03-29T02:39:25.152Z,1018.79
2023-03-29T02:39:56.132Z,1018.79
2023-03-29T02:40:28.149Z,1018.90
2023-03-29T02:40:58.446Z,1018.90
2023-03-29T02:41:29.132Z,1018.90
2023-03-29T02:41:59.950Z,1018.90
2023-03-29T02:42:30.974Z,1018.90
2023-03-29T02:43:01.911Z,1018.90
2023-03-29T02:43:33.213Z,1019.00
2023-03-29T02:44:03.911Z,1019.00
2023-03-29T02:44:35.152Z,1018.90
2023-03-29T02:45:06.735Z,1018.90
2023-03-29T02:45:37.358Z,1018.79
2023-03-29T02:46:07.966Z,1018.79
2023-03-29T02:46:39.019Z,1018.69
2023-03-29T02:47:10.233Z,1018.69
2023-03-29T02:47:41.358Z,1018.69
2023-03-29T02:48:12.144Z,1018.69
2023-03-29T02:48:42.954Z,1019.00
2023-03-29T02:49:14.442Z,1019.00
2023-03-29T02:49:45.581Z,1018.90
2023-03-29T02:50:16.567Z,1018.90
2023-03-29T02:50:47.435Z,1018.69
2023-03-29T02:51:19.941Z,1018.69
2023-03-29T02:51:49.401Z,1018.69
2023-03-29T02:52:20.260Z,1018.69
2023-03-29T02:52:51.374Z,1018.59
2023-03-29T02:53:22.360Z,1018.59
2023-03-29T02:53:53.356Z,1018.59
2023-03-29T02:54:24.036Z,1018.69
2023-03-29T02:54:55.300Z,1018.69
2023-03-29T02:55:26.736Z,1018.79
2023-03-29T02:55:57.395Z,1018.79
2023-03-29T02:56:28.477Z,1018.69
2023-03-29T02:56:59.324Z,1018.69
2023-03-29T02:57:30.282Z,1018.69
2023-03-29T02:58:01.236Z,1018.69
2023-03-29T02:58:32.008Z,1018.59
2023-03-29T02:59:03.052Z,1018.59
2023-03-29T02:59:34.438Z,1018.39
2023-03-29T03:00:05.990Z,1018.39
2023-03-29T03:00:36.441Z,1018.39
2023-03-29T03:01:06.958Z,1018.39
2023-03-29T03:01:40.578Z,1018.59
2023-03-29T03:02:09.393Z,1018.59
2023-03-29T03:02:42.457Z,1018.39
2023-03-29T03:03:11.392Z,1018.39
2023-03-29T03:03:42.174Z,1018.39
2023-03-29T03:04:13.052Z,1018.39
2023-03-29T03:04:44.100Z,1018.59
2023-03-29T03:05:16.140Z,1018.59
2023-03-29T03:05:46.322Z,1018.39
2023-03-29T03:06:17.377Z,1018.39
2023-03-29T03:06:48.026Z,1018.39
2023-03-29T03:07:19.400Z,1018.39
2023-03-29T03:07:50.497Z,1018.39
2023-03-29T03:08:21.185Z,1018.39
2023-03-29T03:08:52.135Z,1018.49
2023-03-29T03:09:23.293Z,1018.49
2023-03-29T03:09:54.520Z,1018.49
2023-03-29T03:10:25.653Z,1018.49
2023-03-29T03:10:56.337Z,1018.49
2023-03-29T03:11:27.236Z,1018.39
2023-03-29T03:11:58.460Z,1018.39
2023-03-29T03:12:29.098Z,1018.29
2023-03-29T03:13:00.139Z,1018.29
2023-03-29T03:13:31.253Z,1018.39
2023-03-29T03:14:02.286Z,1018.39
2023-03-29T03:14:33.082Z,1018.18
2023-03-29T03:15:05.634Z,1018.18
2023-03-29T03:15:35.113Z,1018.08
2023-03-29T03:16:06.315Z,1018.08
2023-03-29T03:16:37.369Z,1018.18
2023-03-29T03:17:08.202Z,1018.18
2023-03-29T03:17:39.301Z,1018.18
2023-03-29T03:18:10.107Z,1018.18
2023-03-29T03:18:41.457Z,1018.01
2023-03-29T03:19:12.222Z,1018.01
2023-03-29T03:19:43.066Z,1018.18
2023-03-29T03:20:14.432Z,1018.18
2023-03-29T03:20:45.869Z,1017.91
2023-03-29T03:21:16.303Z,1017.91
2023-03-29T03:21:47.281Z,1017.91
2023-03-29T03:22:18.456Z,1017.91
2023-03-29T03:22:49.281Z,1018.29
2023-03-29T03:23:20.331Z,1018.29
2023-03-29T03:23:51.637Z,1018.01
2023-03-29T03:24:22.145Z,1018.01
2023-03-29T03:24:53.419Z,1018.08
2023-03-29T03:25:26.397Z,1017.91
2023-03-29T03:25:55.368Z,1017.91
2023-03-29T03:26:26.113Z,1018.08
2023-03-29T03:26:57.702Z,1018.08
2023-03-29T03:27:28.082Z,1018.18
2023-03-29T03:27:59.178Z,1018.18
2023-03-29T03:28:30.109Z,1018.01
2023-03-29T03:29:01.413Z,1018.01
2023-03-29T03:29:32.477Z,1018.18
2023-03-29T03:30:03.848Z,1018.18
2023-03-29T03:30:35.222Z,1018.08
2023-03-29T03:31:05.320Z,1018.08
2023-03-29T03:31:36.442Z,1018.18
2023-03-29T03:32:07.499Z,1018.18
2023-03-29T03:32:38.533Z,1018.08
2023-03-29T03:33:11.598Z,1018.08
2023-03-29T03:33:40.096Z,1018.18
2023-03-29T03:34:21.966Z,1018.18
2023-03-29T03:34:42.509Z,1018.18
2023-03-29T03:35:16.430Z,1018.18
2023-03-29T03:35:44.408Z,1018.01
2023-03-29T03:36:15.426Z,1018.01
2023-03-29T03:36:46.216Z,1018.18
2023-03-29T03:37:17.512Z,1018.18
2023-03-29T03:37:48.369Z,1018.18
2023-03-29T03:38:19.405Z,1018.18
2023-03-29T03:38:50.499Z,1018.29
2023-03-29T03:39:21.489Z,1018.29
2023-03-29T03:39:52.159Z,1018.18
2023-03-29T03:40:24.083Z,1018.29
2023-03-29T03:40:54.785Z,1018.29
2023-03-29T03:41:25.254Z,1018.29
2023-03-29T03:41:56.238Z,1018.29
2023-03-29T03:42:27.296Z,1018.08
2023-03-29T03:42:58.609Z,1018.08
2023-03-29T03:43:29.397Z,1018.49
2023-03-29T03:44:00.566Z,1018.49
2023-03-29T03:44:31.198Z,1018.08
2023-03-29T03:45:02.862Z,1018.08
2023-03-29T03:45:33.157Z,1018.29
2023-03-29T03:46:04.860Z,1018.29
2023-03-29T03:46:35.171Z,1018.18
2023-03-29T03:47:06.238Z,1018.18
2023-03-29T03:47:37.662Z,1018.01
2023-03-29T03:48:08.490Z,1018.01
2023-03-29T03:48:39.549Z,1018.01
2023-03-29T03:49:10.337Z,1018.01
2023-03-29T03:49:41.194Z,1018.18
2023-03-29T03:50:12.551Z,1018.18
2023-03-29T03:50:43.140Z,1018.08
2023-03-29T03:51:15.283Z,1018.08
2023-03-29T03:51:45.553Z,1018.18
2023-03-29T03:52:16.195Z,1018.18
2023-03-29T03:52:47.447Z,1018.18
2023-03-29T03:53:18.171Z,1018.18
2023-03-29T03:53:49.629Z,1018.18
2023-03-29T03:54:20.216Z,1018.18
2023-03-29T03:54:51.218Z,1018.18
2023-03-29T03:55:23.036Z,1018.18
2023-03-29T03:55:53.369Z,1018.39
2023-03-29T03:56:24.268Z,1018.39
2023-03-29T03:56:55.262Z,1018.39
2023-03-29T03:57:26.721Z,1018.08
2023-03-29T03:57:57.549Z,1018.08
2023-03-29T03:58:28.520Z,1018.18
2023-03-29T03:58:59.601Z,1018.18
2023-03-29T03:59:30.485Z,1018.18
2023-03-29T04:00:02.053Z,1018.18
2023-03-29T04:00:32.280Z,1018.18
2023-03-29T04:01:03.413Z,1018.18
2023-03-29T04:01:34.935Z,1018.18
2023-03-29T04:02:05.254Z,1018.18
2023-03-29T04:02:36.972Z,1018.01
2023-03-29T04:03:07.911Z,1018.01
2023-03-29T04:03:38.363Z,1018.39
2023-03-29T04:04:09.278Z,1018.39
2023-03-29T04:04:41.742Z,1018.18
2023-03-29T04:05:11.878Z,1018.18
2023-03-29T04:05:44.013Z,1018.01
2023-03-29T04:06:13.592Z,1018.01
2023-03-29T04:06:44.697Z,1018.08
2023-03-29T04:07:15.386Z,1018.08
2023-03-29T04:07:46.253Z,1018.08
2023-03-29T04:08:17.752Z,1018.08
2023-03-29T04:08:48.448Z,1018.18
2023-03-29T04:09:19.714Z,1018.18
2023-03-29T04:09:50.709Z,1018.29
2023-03-29T04:10:22.071Z,1018.29
2023-03-29T04:10:52.502Z,1018.08
2023-03-29T04:11:23.291Z,1018.18
2023-03-29T04:11:54.353Z,1018.18
2023-03-29T04:12:25.604Z,1018.08
2023-03-29T04:12:56.664Z,1018.08
2023-03-29T04:13:27.497Z,1018.29
2023-03-29T04:13:58.278Z,1018.29
2023-03-29T04:14:29.249Z,1018.49
2023-03-29T04:15:00.794Z,1018.49
2023-03-29T04:15:31.545Z,1018.39
2023-03-29T04:16:02.833Z,1018.39
2023-03-29T04:16:33.671Z,1018.08
2023-03-29T04:17:04.427Z,1018.08
2023-03-29T04:17:35.585Z,1018.29
2023-03-29T04:18:06.341Z,1018.29
2023-03-29T04:18:37.910Z,1018.29
2023-03-29T04:19:08.272Z,1018.29
2023-03-29T04:19:39.304Z,1018.39
2023-03-29T04:20:10.576Z,1018.39
2023-03-29T04:20:41.718Z,1018.08
2023-03-29T04:21:12.645Z,1018.08
2023-03-29T04:21:43.300Z,1018.18
2023-03-29T04:22:14.369Z,1018.18
2023-03-29T04:22:45.272Z,1018.59
2023-03-29T04:23:16.307Z,1018.59
2023-03-29T04:23:47.309Z,1018.39
2023-03-29T04:24:18.500Z,1018.39
2023-03-29T04:24:49.512Z,1018.08
2023-03-29T04:25:20.833Z,1018.08
2023-03-29T04:25:51.830Z,1018.08
2023-03-29T04:26:22.558Z,1018.08
2023-03-29T04:26:53.568Z,1018.08
2023-03-29T04:27:24.539Z,1018.29
2023-03-29T04:27:55.593Z,1018.29
2023-03-29T04:28:26.733Z,1018.18
2023-03-29T04:28:57.338Z,1018.18
2023-03-29T04:29:28.798Z,1018.18
2023-03-29T04:29:59.611Z,1018.18
2023-03-29T04:30:31.150Z,1018.29
2023-03-29T04:31:01.772Z,1018.29
2023-03-29T04:31:32.575Z,1018.08
2023-03-29T04:32:03.479Z,1018.08
2023-03-29T04:32:35.095Z,1018.29
2023-03-29T04:33:05.980Z,1018.29
2023-03-29T04:33:36.398Z,1018.18
2023-03-29T04:34:07.358Z,1018.18
2023-03-29T04:34:38.325Z,1018.08
2023-03-29T04:35:09.517Z,1018.08
2023-03-29T04:35:40.779Z,1018.18
2023-03-29T04:36:12.780Z,1018.18
2023-03-29T04:36:42.274Z,1018.39
2023-03-29T04:37:14.052Z,1018.39
2023-03-29T04:37:44.746Z,1018.18
2023-03-29T04:38:16.484Z,1018.18
2023-03-29T04:38:47.902Z,1018.29
2023-03-29T04:39:17.397Z,1018.29
2023-03-29T04:39:48.536Z,1018.29
2023-03-29T04:40:20.272Z,1018.29
2023-03-29T04:40:50.673Z,1018.08
2023-03-29T04:41:21.601Z,1018.08
2023-03-29T04:41:52.576Z,1018.08
2023-03-29T04:42:23.473Z,1017.91
2023-03-29T04:42:54.741Z,1017.91
2023-03-29T04:43:25.794Z,1018.49
2023-03-29T04:43:56.400Z,1018.49
2023-03-29T04:44:27.577Z,1018.18
2023-03-29T04:44:58.701Z,1018.18
2023-03-29T04:45:30.926Z,1018.08
2023-03-29T04:46:00.693Z,1018.08
2023-03-29T04:46:31.898Z,1018.08
2023-03-29T04:47:02.667Z,1018.08
2023-03-29T04:47:33.758Z,1018.01
2023-03-29T04:48:04.651Z,1018.01
2023-03-29T04:48:35.538Z,1018.08
2023-03-29T04:49:06.394Z,1018.08
2023-03-29T04:49:37.397Z,1017.91
2023-03-29T04:50:09.027Z,1017.91
2023-03-29T04:50:39.931Z,1018.01
2023-03-29T04:51:10.578Z,1018.01
2023-03-29T04:51:41.546Z,1018.01
2023-03-29T04:52:12.743Z,1018.01
2023-03-29T04:52:43.773Z,1018.01
2023-03-29T04:53:14.666Z,1018.01
2023-03-29T04:53:45.914Z,1018.08
2023-03-29T04:54:16.626Z,1018.08
2023-03-29T04:54:48.231Z,1018.08
2023-03-29T04:55:19.600Z,1018.08
2023-03-29T04:55:49.655Z,1018.08
2023-03-29T04:56:20.630Z,1018.08
2023-03-29T04:56:51.662Z,1018.01
2023-03-29T04:57:22.851Z,1018.01
2023-03-29T04:57:53.464Z,1018.01
2023-03-29T04:58:28.220Z,1018.01
2023-03-29T04:58:55.696Z,1018.01
2023-03-29T04:59:26.694Z,1017.91
2023-03-29T04:59:58.002Z,1017.91
2023-03-29T05:00:30.318Z,1018.08
2023-03-29T05:00:59.549Z,1018.08
2023-03-29T05:01:30.838Z,1018.08
2023-03-29T05:02:01.581Z,1018.08
2023-03-29T05:02:32.748Z,1018.01
2023-03-29T05:03:03.905Z,1018.01
2023-03-29T05:03:34.848Z,1018.08
2023-03-29T05:04:05.703Z,1018.08
2023-03-29T05:04:37.242Z,1018.18
2023-03-29T05:05:08.250Z,1018.18
2023-03-29T05:05:38.444Z,1018.18
2023-03-29T05:06:09.448Z,1018.18
2023-03-29T05:06:40.639Z,1018.29
2023-03-29T05:07:11.454Z,1018.29
2023-03-29T05:07:44.226Z,1018.29
2023-03-29T05:08:13.877Z,1018.29
2023-03-29T05:08:46.484Z,1018.18
2023-03-29T05:09:15.514Z,1018.18
2023-03-29T05:09:46.779Z,1018.18
2023-03-29T05:10:17.926Z,1018.18
2023-03-29T05:10:48.933Z,1018.39
2023-03-29T05:11:19.653Z,1018.39
2023-03-29T05:11:50.824Z,1018.39
2023-03-29T05:12:21.653Z,1018.39
2023-03-29T05:12:53.126Z,1018.18
2023-03-29T05:13:23.779Z,1018.29
2023-03-29T05:13:54.888Z,1018.29
2023-03-29T05:14:25.842Z,1018.18
2023-03-29T05:14:57.161Z,1018.18
2023-03-29T05:15:28.568Z,1018.39
2023-03-29T05:15:58.849Z,1018.39
2023-03-29T05:16:29.876Z,1018.39
2023-03-29T05:17:01.169Z,1018.39
2023-03-29T05:17:31.819Z,1018.18
2023-03-29T05:18:02.570Z,1018.18
2023-03-29T05:18:33.959Z,1018.29
2023-03-29T05:19:04.601Z,1018.29
2023-03-29T05:19:35.788Z,1018.29
2023-03-29T05:20:06.998Z,1018.29
2023-03-29T05:20:37.735Z,1018.39
2023-03-29T05:21:09.287Z,1018.39
2023-03-29T05:21:39.549Z,1018.39
2023-03-29T05:22:10.953Z,1018.39
2023-03-29T05:22:41.561Z,1018.39
2023-03-29T05:23:12.757Z,1018.39
2023-03-29T05:23:43.599Z,1018.18
2023-03-29T05:24:14.715Z,1018.18
2023-03-29T05:24:46.128Z,1018.18
2023-03-29T05:25:17.360Z,1018.18
2023-03-29T05:25:47.702Z,1018.29
2023-03-29T05:26:19.142Z,1018.29
2023-03-29T05:26:49.804Z,1018.18
2023-03-29T05:27:20.968Z,1018.18
2023-03-29T05:27:51.890Z,1018.01
2023-03-29T05:28:22.579Z,1018.01
2023-03-29T05:28:53.530Z,1018.18
2023-03-29T05:29:24.999Z,1018.18
2023-03-29T05:29:55.766Z,1018.18
2023-03-29T05:30:27.703Z,1017.91
2023-03-29T05:30:58.400Z,1017.91
2023-03-29T05:31:28.874Z,1017.91
2023-03-29T05:31:59.666Z,1017.91
2023-03-29T05:32:30.986Z,1018.01
2023-03-29T05:33:01.740Z,1018.01
2023-03-29T05:33:33.074Z,1018.01
2023-03-29T05:34:03.910Z,1018.01
2023-03-29T05:34:34.645Z,1017.91
2023-03-29T05:35:07.009Z,1017.91
2023-03-29T05:35:37.054Z,1018.01
2023-03-29T05:36:07.822Z,1018.01
2023-03-29T05:36:39.211Z,1018.08
2023-03-29T05:37:09.498Z,1018.08
2023-03-29T05:37:40.882Z,1018.01
2023-03-29T05:38:11.857Z,1018.01
2023-03-29T05:38:42.565Z,1018.08
2023-03-29T05:39:14.813Z,1018.08
2023-03-29T05:39:44.889Z,1018.29
2023-03-29T05:40:18.682Z,1018.29
2023-03-29T05:40:46.997Z,1018.29
2023-03-29T05:41:17.492Z,1018.29
2023-03-29T05:41:48.530Z,1018.01
2023-03-29T05:42:20.229Z,1018.01
2023-03-29T05:42:50.931Z,1018.01
2023-03-29T05:43:22.060Z,1018.01
2023-03-29T05:43:52.587Z,1017.91
2023-03-29T05:44:24.404Z,1017.91
2023-03-29T05:44:54.693Z,1017.91
2023-03-29T05:45:26.515Z,1018.18
2023-03-29T05:45:56.761Z,1018.18
2023-03-29T05:46:28.004Z,1018.01
2023-03-29T05:46:58.896Z,1018.01
2023-03-29T05:47:29.975Z,1017.91
2023-03-29T05:48:01.120Z,1017.91
2023-03-29T05:48:31.845Z,1018.01
2023-03-29T05:49:03.010Z,1018.01
2023-03-29T05:49:33.892Z,1018.08
2023-03-29T05:50:06.340Z,1018.08
2023-03-29T05:50:36.020Z,1017.91
2023-03-29T05:51:06.692Z,1017.91
2023-03-29T05:51:37.659Z,1018.08
2023-03-29T05:52:09.473Z,1018.08
2023-03-29T05:52:39.618Z,1018.08
2023-03-29T05:53:10.555Z,1018.08
2023-03-29T05:53:41.684Z,1018.18
2023-03-29T05:54:12.576Z,1018.18
2023-03-29T05:54:44.196Z,1018.01
2023-03-29T05:55:15.091Z,1018.01
2023-03-29T05:55:46.067Z,1017.81
2023-03-29T05:56:17.096Z,1017.81
2023-03-29T05:56:47.666Z,1018.08
2023-03-29T05:57:19.264Z,1018.08
2023-03-29T05:57:50.188Z,1018.01
2023-03-29T05:58:21.710Z,1018.01
2023-03-29T05:58:54.773Z,1018.01
2023-03-29T05:59:22.748Z,1018.01
2023-03-29T05:59:53.690Z,1018.01
2023-03-29T06:00:26.063Z,1018.01
2023-03-29T06:00:56.012Z,1018.01
2023-03-29T06:01:26.930Z,1018.08
2023-03-29T06:01:58.394Z,1018.08
2023-03-29T06:02:29.108Z,1018.01
2023-03-29T06:03:10.135Z,1018.01
2023-03-29T06:03:30.950Z,1017.81
2023-03-29T06:04:02.279Z,1017.81
2023-03-29T06:04:32.816Z,1018.08
2023-03-29T06:05:04.788Z,1018.08
2023-03-29T06:05:34.734Z,1018.01
2023-03-29T06:06:06.085Z,1018.01
2023-03-29T06:06:37.165Z,1018.01
2023-03-29T06:07:07.974Z,1018.01
2023-03-29T06:07:41.363Z,1017.91
2023-03-29T06:08:09.666Z,1017.91
2023-03-29T06:08:40.683Z,1018.01
2023-03-29T06:09:12.755Z,1018.01
2023-03-29T06:09:43.073Z,1018.08
2023-03-29T06:10:14.136Z,1018.08
2023-03-29T06:10:46.514Z,1017.91
2023-03-29T06:11:15.708Z,1017.91
2023-03-29T06:11:49.340Z,1018.08
2023-03-29T06:12:18.770Z,1018.08
2023-03-29T06:12:50.542Z,1018.18
2023-03-29T06:13:20.023Z,1018.18
2023-03-29T06:13:51.077Z,1018.18
2023-03-29T06:14:21.721Z,1018.18
2023-03-29T06:14:53.078Z,1018.01